createdAt,value
2023-03-06T00:01:29.534Z,76.68
2023-03-06T00:03:58.029Z,76.82
2023-03-06T00:06:28.275Z,76.54
2023-03-06T00:08:57.119Z,77.53
2023-03-06T00:11:25.450Z,76.93
2023-03-06T00:13:53.889Z,77.68
2023-03-06T00:16:22.829Z,77.66
2023-03-06T00:18:51.313Z,77.46
2023-03-06T00:21:19.762Z,78.12
2023-03-06T00:23:49.551Z,77.86
2023-03-06T00:26:18.069Z,78.21
2023-03-06T00:28:46.980Z,77.82
2023-03-06T00:31:15.727Z,77.42
2023-03-06T00:33:44.178Z,78.96
2023-03-06T00:36:13.217Z,78.52
2023-03-06T00:38:42.717Z,78.83
2023-03-06T00:41:14.771Z,78.65
2023-03-06T00:43:43.172Z,78.21
2023-03-06T00:46:11.693Z,78.11
2023-03-06T00:48:41.238Z,77.84
2023-03-06T00:51:11.426Z,77.31
2023-03-06T00:53:41.245Z,77.69
2023-03-06T00:56:10.500Z,77.40
2023-03-06T00:58:40.263Z,78.04
2023-03-06T01:01:09.452Z,77.81
2023-03-06T01:03:38.151Z,78.00
2023-03-06T01:06:07.162Z,77.94
2023-03-06T01:08:37.153Z,77.53
2023-03-06T01:11:05.910Z,77.61
2023-03-06T01:13:34.498Z,77.50
2023-03-06T01:16:14.321Z,77.65
2023-03-06T01:18:43.488Z,77.76
2023-03-06T01:21:14.978Z,77.34
2023-03-06T01:23:43.951Z,77.75
2023-03-06T01:26:12.414Z,77.81
2023-03-06T01:28:41.106Z,78.42
2023-03-06T01:31:11.512Z,78.60
2023-03-06T01:33:40.006Z,78.53
2023-03-06T01:36:12.455Z,78.38
2023-03-06T01:38:40.799Z,78.48
2023-03-06T01:41:10.939Z,78.67
2023-03-06T01:43:42.424Z,78.52
2023-03-06T01:46:33.750Z,79.19
2023-03-06T01:49:07.419Z,78.73
2023-03-06T01:51:40.731Z,79.34
2023-03-06T01:54:14.349Z,79.02
2023-03-06T01:56:47.929Z,80.49
2023-03-06T01:59:18.108Z,80.13
2023-03-06T02:01:49.044Z,80.04
2023-03-06T02:04:18.807Z,80.01
2023-03-06T02:06:48.517Z,79.96
2023-03-06T02:09:17.578Z,80.46
2023-03-06T02:11:46.590Z,80.54
2023-03-06T02:14:18.373Z,80.75
2023-03-06T02:16:49.803Z,80.97
2023-03-06T02:19:34.340Z,80.73
2023-03-06T02:22:03.647Z,80.08
2023-03-06T02:24:43.731Z,79.36
2023-03-06T02:27:15.847Z,79.06
2023-03-06T02:29:45.104Z,79.65
2023-03-06T02:32:13.769Z,79.94
2023-03-06T02:34:54.727Z,80.53
2023-03-06T02:37:26.198Z,80.06
2023-03-06T02:40:09.188Z,80.20
2023-03-06T02:42:39.210Z,79.67
2023-03-06T02:45:12.654Z,79.50
2023-03-06T02:47:43.614Z,79.38
2023-03-06T02:50:13.090Z,79.80
2023-03-06T02:52:41.410Z,79.81
2023-03-06T02:55:10.585Z,79.28
2023-03-06T02:57:40.594Z,79.18
2023-03-06T03:00:11.360Z,78.73
2023-03-06T03:02:40.099Z,78.31
2023-03-06T03:05:09.369Z,78.66
2023-03-06T03:07:43.020Z,78.49
2023-03-06T03:10:13.801Z,78.76
2023-03-06T03:12:45.279Z,78.47
2023-03-06T03:15:15.160Z,78.76
2023-03-06T03:17:43.963Z,78.56
2023-03-06T03:20:16.524Z,80.26
2023-03-06T03:22:48.747Z,80.31
2023-03-06T03:25:19.090Z,79.81
2023-03-06T03:27:49.186Z,79.38
2023-03-06T03:30:18.209Z,80.09
2023-03-06T03:32:46.972Z,80.02
2023-03-06T03:35:15.584Z,80.25
2023-03-06T03:37:44.419Z,80.40
2023-03-06T03:40:14.271Z,80.94
2023-03-06T03:42:42.783Z,80.69
2023-03-06T03:45:13.776Z,81.24
2023-03-06T03:47:42.710Z,81.45
2023-03-06T03:50:14.014Z,81.58
2023-03-06T03:52:42.867Z,81.77
2023-03-06T03:55:13.330Z,81.81
2023-03-06T03:57:44.237Z,82.19
2023-03-06T04:00:16.796Z,82.21
2023-03-06T04:02:55.166Z,81.31
2023-03-06T04:05:33.243Z,81.21
2023-03-06T04:08:04.336Z,81.05
2023-03-06T04:10:34.578Z,81.61
2023-03-06T04:13:04.205Z,81.66
2023-03-06T04:15:34.192Z,81.63
2023-03-06T04:18:03.403Z,81.61
2023-03-06T04:20:31.868Z,81.42
2023-03-06T04:23:01.925Z,82.42
2023-03-06T04:25:30.785Z,82.45
2023-03-06T04:28:01.323Z,82.30
2023-03-06T04:30:31.184Z,82.37
2023-03-06T04:33:02.021Z,82.26
2023-03-06T04:35:30.522Z,82.29
2023-03-06T04:38:03.758Z,81.94
2023-03-06T04:40:35.031Z,81.98
2023-03-06T04:43:04.967Z,81.72
2023-03-06T04:45:35.587Z,81.88
2023-03-06T04:48:06.132Z,81.73
2023-03-06T04:50:35.101Z,80.86
2023-03-06T04:53:04.803Z,81.57
2023-03-06T04:55:33.175Z,82.03
2023-03-06T04:58:02.149Z,81.64
2023-03-06T05:00:31.789Z,81.39
2023-03-06T05:03:03.955Z,81.69
2023-03-06T05:05:33.867Z,81.41
2023-03-06T05:08:02.249Z,81.96
2023-03-06T05:10:30.823Z,81.63
2023-03-06T05:12:59.213Z,81.23
2023-03-06T05:15:27.656Z,81.55
2023-03-06T05:17:56.586Z,81.58
2023-03-06T05:20:25.278Z,81.25
2023-03-06T05:22:57.860Z,81.40
2023-03-06T05:25:26.452Z,81.49
2023-03-06T05:27:58.379Z,81.81
2023-03-06T05:30:27.236Z,81.42
2023-03-06T05:32:56.988Z,81.93
2023-03-06T05:35:25.746Z,81.58
2023-03-06T05:37:56.999Z,81.71
2023-03-06T05:40:25.745Z,81.26
2023-03-06T05:42:54.385Z,83.01
2023-03-06T05:45:23.158Z,82.66
2023-03-06T05:47:51.616Z,82.58
2023-03-06T05:50:20.364Z,82.44
2023-03-06T05:52:48.790Z,82.60
2023-03-06T05:55:19.598Z,82.43
2023-03-06T05:57:48.048Z,81.66
2023-03-06T06:00:17.889Z,81.91
2023-03-06T06:02:47.039Z,82.39
2023-03-06T06:05:15.828Z,82.05
2023-03-06T06:07:44.333Z,81.42
2023-03-06T06:10:13.660Z,81.61
2023-03-06T06:12:43.600Z,81.21
2023-03-06T06:15:11.980Z,81.34
2023-03-06T06:17:40.731Z,82.18
2023-03-06T06:20:18.601Z,81.43
2023-03-06T06:22:47.140Z,81.28
2023-03-06T06:25:16.739Z,81.55
2023-03-06T06:27:46.537Z,81.83
2023-03-06T06:30:15.504Z,81.40
2023-03-06T06:32:44.028Z,81.27
2023-03-06T06:35:12.435Z,81.55
2023-03-06T06:37:40.930Z,82.18
2023-03-06T06:40:11.482Z,81.52
2023-03-06T06:42:40.502Z,81.33
2023-03-06T06:45:12.779Z,81.31
2023-03-06T06:47:41.736Z,81.53
2023-03-06T06:50:13.898Z,82.69
2023-03-06T06:52:42.662Z,82.16
2023-03-06T06:55:12.226Z,81.80
2023-03-06T06:57:42.401Z,81.11
2023-03-06T07:00:15.472Z,80.29
2023-03-06T07:02:44.022Z,80.54
2023-03-06T07:05:12.720Z,80.76
2023-03-06T07:07:41.273Z,81.40
2023-03-06T07:10:15.692Z,80.90
2023-03-06T07:12:44.359Z,80.93
2023-03-06T07:15:17.423Z,80.72
2023-03-06T07:17:47.153Z,80.90
2023-03-06T07:20:16.779Z,80.90
2023-03-06T07:22:51.503Z,81.00
2023-03-06T07:25:20.997Z,80.46
2023-03-06T07:27:53.874Z,80.21
2023-03-06T07:30:25.523Z,80.07
2023-03-06T07:32:55.827Z,79.63
2023-03-06T07:35:26.311Z,79.47
2023-03-06T07:37:55.185Z,79.09
2023-03-06T07:40:24.528Z,78.96
2023-03-06T07:43:06.105Z,79.30
2023-03-06T07:45:47.582Z,78.79
2023-03-06T07:48:16.290Z,78.76
2023-03-06T07:50:45.135Z,79.48
2023-03-06T07:53:14.292Z,79.48
2023-03-06T07:55:42.757Z,80.69
2023-03-06T07:58:11.640Z,79.92
2023-03-06T08:00:40.252Z,79.46
2023-03-06T08:03:11.580Z,79.82
2023-03-06T08:05:40.495Z,79.76
2023-03-06T08:08:09.886Z,79.01
2023-03-06T08:10:38.862Z,79.58
2023-03-06T08:13:07.367Z,79.44
2023-03-06T08:15:36.072Z,79.05
2023-03-06T08:18:04.764Z,78.32
2023-03-06T08:20:34.947Z,77.74
2023-03-06T08:23:03.358Z,77.02
2023-03-06T08:25:31.760Z,76.80
2023-03-06T08:28:01.034Z,76.22
2023-03-06T08:30:31.073Z,76.94
2023-03-06T08:32:59.958Z,76.20
2023-03-06T08:35:28.664Z,75.68
2023-03-06T08:37:58.742Z,75.30
2023-03-06T08:40:30.548Z,75.16
2023-03-06T08:42:59.250Z,74.85
2023-03-06T08:45:27.779Z,74.59
2023-03-06T08:47:56.313Z,74.54
2023-03-06T08:50:24.866Z,73.61
2023-03-06T08:52:53.412Z,73.28
2023-03-06T08:55:23.630Z,72.07
2023-03-06T08:57:52.094Z,72.73
2023-03-06T09:00:22.416Z,72.18
2023-03-06T09:02:51.215Z,71.62
2023-03-06T09:05:20.527Z,71.75
2023-03-06T09:07:48.957Z,70.22
2023-03-06T09:10:20.744Z,70.29
2023-03-06T09:12:53.752Z,69.85
2023-03-06T09:15:24.882Z,69.76
2023-03-06T09:17:54.201Z,68.86
2023-03-06T09:20:23.630Z,68.90
2023-03-06T09:22:52.267Z,69.13
2023-03-06T09:25:23.246Z,67.16
2023-03-06T09:28:08.797Z,67.42
2023-03-06T09:30:40.765Z,68.55
2023-03-06T09:33:09.327Z,68.25
2023-03-06T09:35:42.030Z,66.54
2023-03-06T09:38:10.431Z,66.30
2023-03-06T09:40:56.647Z,64.46
2023-03-06T09:43:32.880Z,65.88
2023-03-06T09:46:01.502Z,64.88
2023-03-06T09:48:40.936Z,65.33
2023-03-06T09:51:16.353Z,64.78
2023-03-06T09:54:02.425Z,65.37
2023-03-06T09:56:34.474Z,64.89
2023-03-06T09:59:15.379Z,64.81
2023-03-06T10:01:47.388Z,64.52
2023-03-06T10:04:35.698Z,64.65
2023-03-06T10:07:13.519Z,66.19
2023-03-06T10:09:49.638Z,68.74
2023-03-06T10:12:26.178Z,68.78
2023-03-06T10:15:12.859Z,69.74
2023-03-06T10:17:43.378Z,70.70
2023-03-06T10:20:19.992Z,71.72
2023-03-06T10:23:05.355Z,72.10
2023-03-06T10:25:43.550Z,71.29
2023-03-06T10:28:19.444Z,71.46
2023-03-06T10:30:57.805Z,70.92
2023-03-06T10:33:43.726Z,69.11
2023-03-06T10:36:17.067Z,70.35
2023-03-06T10:38:48.667Z,70.22
2023-03-06T10:41:27.236Z,68.94
2023-03-06T10:44:23.556Z,67.03
2023-03-06T10:46:55.708Z,66.28
2023-03-06T10:49:36.942Z,65.83
2023-03-06T10:52:21.437Z,66.13
2023-03-06T10:54:50.166Z,65.96
2023-03-06T10:57:28.506Z,64.94
2023-03-06T10:59:59.752Z,64.48
2023-03-06T11:02:36.509Z,64.08
2023-03-06T11:05:06.644Z,65.23
2023-03-06T11:07:36.693Z,64.76
2023-03-06T11:10:19.133Z,65.62
2023-03-06T11:13:02.910Z,64.17
2023-03-06T11:15:32.273Z,64.15
2023-03-06T11:18:06.197Z,65.40
2023-03-06T11:20:51.416Z,64.44
2023-03-06T11:23:30.156Z,64.43
2023-03-06T11:26:04.997Z,64.08
2023-03-06T11:28:40.385Z,63.40
2023-03-06T11:31:15.119Z,62.76
2023-03-06T11:33:53.703Z,62.81
2023-03-06T11:36:31.550Z,62.07
2023-03-06T11:39:00.489Z,63.22
2023-03-06T11:41:41.025Z,62.99
2023-03-06T11:44:23.140Z,62.04
2023-03-06T11:47:00.391Z,58.89
2023-03-06T11:49:37.382Z,59.19
2023-03-06T11:52:16.174Z,59.35
2023-03-06T11:54:47.200Z,56.80
2023-03-06T11:57:21.477Z,56.90
2023-03-06T12:00:22.430Z,56.16
2023-03-06T12:03:38.020Z,56.79
2023-03-06T12:06:17.638Z,58.10
2023-03-06T12:09:05.048Z,58.55
2023-03-06T12:11:44.057Z,58.88
2023-03-06T12:14:42.131Z,59.29
2023-03-06T12:17:21.535Z,59.56
2023-03-06T12:20:18.741Z,61.68
2023-03-06T12:23:02.495Z,63.08
2023-03-06T12:25:45.373Z,63.74
2023-03-06T12:28:35.944Z,63.48
2023-03-06T12:31:34.139Z,63.44
2023-03-06T12:34:39.932Z,62.96
2023-03-06T12:37:23.509Z,61.47
2023-03-06T12:40:22.213Z,62.17
2023-03-06T12:43:29.103Z,63.44
2023-03-06T12:46:00.827Z,64.56
2023-03-06T12:48:35.644Z,62.39
2023-03-06T12:51:07.266Z,60.86
2023-03-06T12:53:37.464Z,60.45
2023-03-06T12:56:10.095Z,58.25
2023-03-06T12:58:51.057Z,57.35
2023-03-06T13:01:43.529Z,56.81
2023-03-06T13:04:45.617Z,56.08
2023-03-06T13:07:35.291Z,57.18
2023-03-06T13:10:22.503Z,56.88
2023-03-06T13:13:01.373Z,56.30
2023-03-06T13:15:38.790Z,56.38
2023-03-06T13:19:11.995Z,55.11
2023-03-06T13:22:03.301Z,55.45
2023-03-06T13:24:37.362Z,54.72
2023-03-06T13:27:09.881Z,55.72
2023-03-06T13:30:22.342Z,56.40
2023-03-06T13:32:53.296Z,55.67
2023-03-06T13:35:53.898Z,55.37
2023-03-06T13:38:56.807Z,54.46
2023-03-06T13:41:54.997Z,54.08
2023-03-06T13:44:49.681Z,52.89
2023-03-06T13:48:21.142Z,52.33
2023-03-06T13:50:45.936Z,51.20
2023-03-06T13:54:09.242Z,49.14
2023-03-06T13:57:33.344Z,50.03
2023-03-06T14:00:42.180Z,50.70
2023-03-06T14:03:41.479Z,49.76
2023-03-06T14:06:52.190Z,48.92
2023-03-06T14:09:31.046Z,49.95
2023-03-06T14:12:07.035Z,49.83
2023-03-06T14:14:42.815Z,49.48
2023-03-06T14:17:24.992Z,49.87
2023-03-06T14:19:55.403Z,49.71
2023-03-06T14:22:26.230Z,50.12
2023-03-06T14:25:03.891Z,50.65
2023-03-06T14:27:47.990Z,51.54
2023-03-06T14:30:23.629Z,51.23
2023-03-06T14:32:56.470Z,51.44
2023-03-06T14:35:30.652Z,51.11
2023-03-06T14:38:02.846Z,51.85
2023-03-06T14:40:37.078Z,53.23
2023-03-06T14:43:20.600Z,52.39
2023-03-06T14:45:55.662Z,52.29
2023-03-06T14:48:25.564Z,54.03
2023-03-06T14:50:57.187Z,54.01
2023-03-06T14:53:30.286Z,54.12
2023-03-06T14:56:04.444Z,54.88
2023-03-06T14:58:39.688Z,55.82
2023-03-06T15:01:13.362Z,55.66
2023-03-06T15:03:46.673Z,56.95
2023-03-06T15:06:22.377Z,57.80
2023-03-06T15:09:01.613Z,59.04
2023-03-06T15:11:59.738Z,60.99
2023-03-06T15:14:38.618Z,63.18
2023-03-06T15:17:30.139Z,65.38
2023-03-06T15:20:00.781Z,66.79
2023-03-06T15:22:39.143Z,67.41
2023-03-06T15:25:26.926Z,66.44
2023-03-06T15:27:58.594Z,66.06
2023-03-06T15:30:31.344Z,65.43
2023-03-06T15:33:25.734Z,67.37
2023-03-06T15:35:57.348Z,66.46
2023-03-06T15:38:36.406Z,66.88
2023-03-06T15:41:07.789Z,66.50
2023-03-06T15:43:40.584Z,66.80
2023-03-06T15:46:09.209Z,67.36
2023-03-06T15:48:37.796Z,66.52
2023-03-06T15:51:07.029Z,63.67
2023-03-06T15:53:37.738Z,64.33
2023-03-06T15:56:06.928Z,64.31
2023-03-06T15:58:35.916Z,64.18
2023-03-06T16:01:07.107Z,63.11
2023-03-06T16:03:35.664Z,64.69
2023-03-06T16:06:04.720Z,65.48
2023-03-06T16:08:33.141Z,65.54
2023-03-06T16:11:03.072Z,65.13
2023-03-06T16:13:31.736Z,65.78
2023-03-06T16:16:00.964Z,65.93
2023-03-06T16:18:31.542Z,65.27
2023-03-06T16:21:00.497Z,64.89
2023-03-06T16:23:29.274Z,65.47
2023-03-06T16:26:00.499Z,64.70
2023-03-06T16:28:30.525Z,64.38
2023-03-06T16:30:59.264Z,63.82
2023-03-06T16:33:27.834Z,64.41
2023-03-06T16:35:56.595Z,63.89
2023-03-06T16:38:25.620Z,66.23
2023-03-06T16:40:54.204Z,66.90
2023-03-06T16:43:22.696Z,66.05
2023-03-06T16:45:52.813Z,65.92
2023-03-06T16:48:21.309Z,65.68
2023-03-06T16:50:50.374Z,66.90
2023-03-06T16:53:19.514Z,66.36
2023-03-06T16:55:48.630Z,66.33
2023-03-06T16:58:17.309Z,66.75
2023-03-06T17:00:45.811Z,65.84
2023-03-06T17:03:16.779Z,66.62
2023-03-06T17:05:45.778Z,65.15
2023-03-06T17:08:14.307Z,64.68
2023-03-06T17:10:44.917Z,65.56
2023-03-06T17:13:13.673Z,66.08
2023-03-06T17:15:42.198Z,65.23
2023-03-06T17:18:10.649Z,65.64
2023-03-06T17:20:40.797Z,66.34
2023-03-06T17:23:09.316Z,66.59
2023-03-06T17:25:38.487Z,66.33
2023-03-06T17:28:07.238Z,65.72
2023-03-06T17:30:35.656Z,66.08
2023-03-06T17:33:05.422Z,66.39
2023-03-06T17:35:36.967Z,66.86
2023-03-06T17:38:06.835Z,67.39
2023-03-06T17:40:36.625Z,67.34
2023-03-06T17:43:05.539Z,66.99
2023-03-06T17:45:37.876Z,67.33
2023-03-06T17:48:06.679Z,68.07
2023-03-06T17:50:37.042Z,68.71
2023-03-06T17:53:07.126Z,69.70
2023-03-06T17:55:39.029Z,68.40
2023-03-06T17:58:07.837Z,69.41
2023-03-06T18:00:37.201Z,69.72
2023-03-06T18:03:05.896Z,70.01
2023-03-06T18:05:34.592Z,69.73
2023-03-06T18:08:02.903Z,70.79
2023-03-06T18:10:33.053Z,70.89
2023-03-06T18:13:02.389Z,70.79
2023-03-06T18:15:30.946Z,71.04
2023-03-06T18:17:59.678Z,70.75
2023-03-06T18:20:28.721Z,71.21
2023-03-06T18:22:59.680Z,71.24
2023-03-06T18:25:28.060Z,72.05
2023-03-06T18:27:57.901Z,71.96
2023-03-06T18:30:26.743Z,72.60
2023-03-06T18:32:55.736Z,72.48
2023-03-06T18:35:24.456Z,73.20
2023-03-06T18:37:53.625Z,74.08
2023-03-06T18:40:24.561Z,74.28
2023-03-06T18:42:54.253Z,74.45
2023-03-06T18:45:24.010Z,74.86
2023-03-06T18:47:52.484Z,75.25
2023-03-06T18:50:21.201Z,74.95
2023-03-06T18:52:50.279Z,75.62
2023-03-06T18:55:18.908Z,76.81
2023-03-06T18:57:47.514Z,76.87
2023-03-06T19:00:18.290Z,77.40
2023-03-06T19:02:48.290Z,77.66
2023-03-06T19:05:17.296Z,76.91
2023-03-06T19:07:46.801Z,76.84
2023-03-06T19:10:15.388Z,76.61
2023-03-06T19:12:52.770Z,76.96
2023-03-06T19:15:21.209Z,77.62
2023-03-06T19:17:52.263Z,77.25
2023-03-06T19:20:21.555Z,77.29
2023-03-06T19:22:50.619Z,77.80
2023-03-06T19:25:20.078Z,77.84
2023-03-06T19:27:48.523Z,78.84
2023-03-06T19:30:17.869Z,78.93
2023-03-06T19:32:47.779Z,79.74
2023-03-06T19:35:18.201Z,78.88
2023-03-06T19:37:47.167Z,79.37
2023-03-06T19:40:16.174Z,80.52
2023-03-06T19:42:44.739Z,80.79
2023-03-06T19:45:14.055Z,80.78
2023-03-06T19:47:42.652Z,81.03
2023-03-06T19:50:12.665Z,81.04
2023-03-06T19:52:42.642Z,81.13
2023-03-06T19:55:12.298Z,81.82
2023-03-06T19:57:41.123Z,81.79
2023-03-06T20:00:12.237Z,81.96
2023-03-06T20:02:43.882Z,81.38
2023-03-06T20:05:12.426Z,81.98
2023-03-06T20:07:42.315Z,82.13
2023-03-06T20:10:12.714Z,81.63
2023-03-06T20:12:41.289Z,82.53
2023-03-06T20:15:11.169Z,82.67
2023-03-06T20:17:40.732Z,83.14
2023-03-06T20:20:11.640Z,83.49
2023-03-06T20:22:41.542Z,83.66
2023-03-06T20:25:10.837Z,83.05
2023-03-06T20:27:39.831Z,83.95
2023-03-06T20:30:10.392Z,83.66
2023-03-06T20:32:38.984Z,83.71
2023-03-06T20:35:09.603Z,83.12
2023-03-06T20:37:40.855Z,83.09
2023-03-06T20:40:12.871Z,82.60
2023-03-06T20:42:41.319Z,82.03
2023-03-06T20:45:11.103Z,82.90
2023-03-06T20:47:39.530Z,82.82
2023-03-06T20:50:09.208Z,82.80
2023-03-06T20:52:37.668Z,82.75
2023-03-06T20:55:07.544Z,83.11
2023-03-06T20:57:37.366Z,82.86
2023-03-06T21:00:08.760Z,82.45
2023-03-06T21:02:37.299Z,82.60
2023-03-06T21:05:06.625Z,83.05
2023-03-06T21:07:35.117Z,83.51
2023-03-06T21:10:03.682Z,82.38
2023-03-06T21:12:32.260Z,82.65
2023-03-06T21:15:02.109Z,82.97
2023-03-06T21:17:30.602Z,82.25
2023-03-06T21:19:59.236Z,82.83
2023-03-06T21:22:30.217Z,83.07
2023-03-06T21:24:58.722Z,81.95
2023-03-06T21:27:27.461Z,82.45
2023-03-06T21:29:56.005Z,82.31
2023-03-06T21:32:25.921Z,82.17
2023-03-06T21:34:54.350Z,82.02
2023-03-06T21:37:22.876Z,82.57
2023-03-06T21:39:51.276Z,82.47
2023-03-06T21:42:19.718Z,82.58
2023-03-06T21:44:48.206Z,83.05
2023-03-06T21:47:16.745Z,83.01
2023-03-06T21:49:46.536Z,83.61
2023-03-06T21:52:14.937Z,83.22
2023-03-06T21:54:43.418Z,83.57
2023-03-06T21:57:11.856Z,84.34
2023-03-06T21:59:40.685Z,83.73
2023-03-06T22:02:11.108Z,84.57
2023-03-06T22:04:39.881Z,84.36
2023-03-06T22:07:10.090Z,84.45
2023-03-06T22:09:38.680Z,84.63
2023-03-06T22:12:08.196Z,84.61
2023-03-06T22:14:36.826Z,84.91
2023-03-06T22:17:05.517Z,83.97
2023-03-06T22:19:34.082Z,84.60
2023-03-06T22:22:02.436Z,85.31
2023-03-06T22:24:33.748Z,84.39
2023-03-06T22:27:02.255Z,84.10
2023-03-06T22:29:30.862Z,85.07
2023-03-06T22:31:59.253Z,83.47
2023-03-06T22:34:27.701Z,82.68
2023-03-06T22:36:56.361Z,83.25
2023-03-06T22:39:24.781Z,83.13
2023-03-06T22:41:56.469Z,83.19
2023-03-06T22:44:25.103Z,83.04
2023-03-06T22:46:53.561Z,82.89
2023-03-06T22:49:22.015Z,82.56
2023-03-06T22:51:50.518Z,82.62
2023-03-06T22:54:18.962Z,82.46
2023-03-06T22:56:47.472Z,82.80
2023-03-06T22:59:17.325Z,82.89
2023-03-06T23:01:45.684Z,82.32
2023-03-06T23:04:17.028Z,83.05
2023-03-06T23:06:47.028Z,82.67
2023-03-06T23:09:20.495Z,82.61
2023-03-06T23:12:09.066Z,82.97
2023-03-06T23:14:57.153Z,83.58
2023-03-06T23:17:44.480Z,83.56
2023-03-06T23:20:31.581Z,84.46
2023-03-06T23:23:18.603Z,83.56
2023-03-06T23:25:46.951Z,84.12
2023-03-06T23:28:15.524Z,84.02
2023-03-06T23:30:45.668Z,83.76
2023-03-06T23:33:14.126Z,83.65
2023-03-06T23:35:44.122Z,83.66
2023-03-06T23:38:12.788Z,83.76
2023-03-06T23:40:41.537Z,83.74
2023-03-06T23:43:10.109Z,82.92
2023-03-06T23:45:38.416Z,83.25
2023-03-06T23:48:08.946Z,83.54
2023-03-06T23:50:41.136Z,83.64
2023-03-06T23:53:09.527Z,83.03
2023-03-06T23:55:41.907Z,83.22
2023-03-06T23:58:10.369Z,83.16
